Portada
METAR-TAF:

METAR-TAF

Aeropuertos :

Chlef, Argelia

latitud: 36-13N, longitud: 001-20E, altitud: 143 m

Observación

El informe se hizo hace 59 minutos, a las 08:00 UTC
Viento 2 kt con dirección variable
Temperatura 9°C
Humedad 93%
Presión 1023 hPa
Visibilidad: 8000 m

METAR: DAOI 270800Z VRB02KT 8000 NSC 09/08 Q1023

Hora: 09:59 (08:59 UTC)

Pronóstico

El informe se hizo hace 3 horas y 59 minutos, a las 05:00 UTC
Pronóstico válido del 27 a las 06 UTC al 28 a las 06 UTC
Viento 2 kt con dirección variable
Visibilidad 10 km o más
sin nubes por debajo de 1500 m y sin presencia de cumulonimbus.
Probabilidad 30% :
Temporalmente
del 27 a las 06 UTC al 27 a las 09 UTC
Visibilidad: 3000 m
neblina
Evolucionando progresivamente
del 27 a las 12 UTC al 27 a las 15 UTC
Viento 10 kt del noreste

TAF: DAOI 270500Z 2706/2806 VRB02KT CAVOK PROB30 TEMPO 2706/2709 3000 BR NSC BECMG 2712/2715 04010KT

Observaciones y pronósticos meteorológicos de más de 4000 aeropuertos (mensajes METAR y TAF).

Los puntos amarillos y rojos representan las estaciones disponibles.

Ponga el ratón en el punto deseado para ver el nombre de la estación.

Haga clic para ver las observaciones y los pronósticos meteorológicos.

Para cambiar el mapa : haga clic en los botones verdes con una cruz de color negro para hacer un zoom, en el botón verde con un guión para alejar o en las flechas verdes para mapas adyacentes.


METAR-TAF: